La Prairie, Illinois
Current Conditions -  °F | °C
As of 10:06 AM on Saturday 20 Dec 2014 (Local Time) from KUIN Reporting Station
Haze Haze  
Wind Chill: 29°   Ceiling: 2900
Heat Index: 35°   Visibility: 4mi
Dew Point: 30°   Wind: 7mph
Humidity: 82%   Direction: 160°SSE
Pressure: 30.25"   Gusts: NA
Location:  40.15°N, 91°W
Report Text: KUIN 201606Z AUTO 16006KT 4SM HZ FEW013 BKN029 OVC042 02/M01 A3025 RMK AO2 T00171011
Loading
Personal Weather Stations






























Interactive Weather Map New forecast layout! Learn more

10-Day Weather Forecast

Advertisements
Track Severe Weather on mobile